Time;durP1;ratioP1;P1;durP2;ratioP2;P2;SDS_P1;SDS_P2;PMS_P1;PMS_P2;Temp;Humidity;BMP_temperature;BMP_pressure;BME280_temperature;BME280_humidity;BME280_pressure;Samples;Min_cycle;Max_cycle;Signal;HPM_P1;HPM_P2
2023/01/26 00:02:05;;;;;;;107.45;50.08;;;;;;;1.09;72.03;102469.00;5039934;28;20052;-65
2023/01/26 00:04:31;;;;;;;108.10;49.15;;;;;;;1.14;72.02;102472.16;5034988;28;20062;-65
2023/01/26 00:06:56;;;;;;;110.15;49.53;;;;;;;1.14;71.74;102471.25;5034257;28;20040;-65
2023/01/26 00:09:21;;;;;;;105.93;49.83;;;;;;;1.09;71.64;102466.25;5044794;28;20025;-65
2023/01/26 00:11:47;;;;;;;108.03;50.88;;;;;;;1.03;71.45;102460.56;5046784;28;20029;-65
2023/01/26 00:14:12;;;;;;;110.70;50.50;;;;;;;1.03;72.17;102453.22;5044914;28;20021;-65
2023/01/26 00:16:37;;;;;;;106.88;50.08;;;;;;;1.05;71.50;102455.78;5047550;28;20017;-65
2023/01/26 00:19:03;;;;;;;109.30;49.83;;;;;;;1.06;72.26;102446.56;5048769;28;20463;-65
2023/01/26 00:21:28;;;;;;;103.72;49.00;;;;;;;1.01;71.72;102444.28;5049334;28;20800;-65
2023/01/26 00:23:53;;;;;;;99.78;48.50;;;;;;;1.07;72.55;102449.16;5029117;28;20034;-65
2023/01/26 00:26:24;;;;;;;100.95;47.58;;;;;;;1.07;71.95;102451.03;5033721;28;20745;-65
2023/01/26 00:28:50;;;;;;;101.13;49.03;;;;;;;1.05;72.32;102445.69;5050909;28;20095;-65
2023/01/26 00:31:20;;;;;;;97.72;47.13;;;;;;;1.07;71.96;102446.41;5052702;28;20047;-65
2023/01/26 00:33:45;;;;;;;105.03;49.67;;;;;;;1.07;72.26;102442.84;5050658;28;20025;-65
2023/01/26 00:36:11;;;;;;;97.30;47.15;;;;;;;1.05;72.69;102434.75;5049735;28;20040;-65
2023/01/26 00:38:38;;;;;;;94.93;47.05;;;;;;;1.02;72.23;102429.59;5048371;28;20489;-66
2023/01/26 00:41:04;;;;;;;95.40;47.00;;;;;;;1.02;72.30;102435.06;5044667;28;20025;-65
2023/01/26 00:43:29;;;;;;;95.97;46.58;;;;;;;1.07;73.00;102430.00;5053614;28;20051;-65
2023/01/26 00:45:54;;;;;;;97.15;47.78;;;;;;;1.09;72.69;102424.38;5045606;28;20516;-65
2023/01/26 00:48:20;;;;;;;96.82;44.90;;;;;;;1.10;72.77;102424.25;5052527;28;20033;-65
2023/01/26 00:50:45;;;;;;;95.40;46.42;;;;;;;1.09;72.83;102424.38;5052523;28;20039;-65
2023/01/26 00:53:11;;;;;;;91.60;44.88;;;;;;;1.08;72.54;102418.06;5050532;28;20094;-65
2023/01/26 00:55:36;;;;;;;95.05;44.28;;;;;;;1.05;72.91;102414.75;5047609;28;20115;-65
2023/01/26 00:58:06;;;;;;;96.47;47.08;;;;;;;1.04;73.14;102410.31;5037138;28;20033;-66
2023/01/26 01:00:34;;;;;;;89.30;45.55;;;;;;;1.01;73.45;102403.25;5052124;28;20039;-66
2023/01/26 01:02:59;;;;;;;90.95;45.78;;;;;;;1.04;73.09;102404.84;5052260;28;20494;-65
2023/01/26 01:05:27;;;;;;;88.85;44.05;;;;;;;1.07;72.89;102410.88;5048660;28;20029;-65
2023/01/26 01:07:53;;;;;;;84.22;42.72;;;;;;;1.08;72.87;102401.66;5044355;28;20068;-65
2023/01/26 01:10:18;;;;;;;83.60;43.92;;;;;;;1.08;73.25;102396.19;5045048;28;20476;-65
2023/01/26 01:12:44;;;;;;;86.78;43.92;;;;;;;1.09;73.08;102397.03;5048557;28;20021;-65
2023/01/26 01:15:10;;;;;;;88.88;43.85;;;;;;;1.11;73.37;102389.56;5040526;28;20048;-65
2023/01/26 01:17:36;;;;;;;87.18;44.28;;;;;;;1.11;72.86;102393.16;5052984;28;20036;-65
2023/01/26 01:20:04;;;;;;;90.78;44.88;;;;;;;1.11;73.61;102403.22;5049544;28;20025;-65
2023/01/26 01:22:30;;;;;;;85.03;43.83;;;;;;;1.09;72.76;102397.88;5046665;28;20083;-65
2023/01/26 01:24:55;;;;;;;87.00;43.17;;;;;;;1.09;73.24;102407.97;5051559;28;20072;-65
2023/01/26 01:27:20;;;;;;;87.05;44.10;;;;;;;1.08;72.85;102395.31;5049898;28;20033;-65
2023/01/26 01:29:46;;;;;;;86.63;43.47;;;;;;;1.11;72.84;102405.97;5048035;28;20126;-65
2023/01/26 01:32:11;;;;;;;84.60;42.85;;;;;;;1.11;72.94;102389.56;5042051;28;20031;-65
2023/01/26 01:34:36;;;;;;;78.60;40.42;;;;;;;1.12;73.13;102383.06;5047712;28;20160;-66
2023/01/26 01:37:01;;;;;;;84.30;43.67;;;;;;;1.14;72.90;102386.50;5050040;28;20455;-65
2023/01/26 01:39:27;;;;;;;82.35;42.65;;;;;;;1.13;73.05;102393.84;5048755;28;20044;-65
2023/01/26 01:41:52;;;;;;;88.07;43.08;;;;;;;1.14;73.56;102403.78;5046935;28;20052;-65
2023/01/26 01:44:20;;;;;;;82.50;43.25;;;;;;;1.14;73.74;102395.59;5047804;28;20091;-65
2023/01/26 01:46:59;;;;;;;81.15;41.80;;;;;;;1.16;73.35;102398.16;5043979;28;20047;-65
2023/01/26 01:49:28;;;;;;;81.97;42.90;;;;;;;1.13;73.74;102401.19;5027581;28;20091;-65
2023/01/26 01:52:04;;;;;;;85.07;44.13;;;;;;;1.11;73.23;102395.03;5041011;28;20032;-65
2023/01/26 01:54:38;;;;;;;82.97;41.92;;;;;;;1.17;73.31;102406.19;5039453;28;20167;-65
2023/01/26 01:57:14;;;;;;;80.05;41.08;;;;;;;1.19;73.21;102404.19;5049842;28;20032;-64
2023/01/26 01:59:42;;;;;;;73.90;38.80;;;;;;;1.19;72.97;102403.31;5052066;28;20467;-65
2023/01/26 02:02:07;;;;;;;79.35;40.78;;;;;;;1.12;73.36;102396.72;5046563;28;20163;-65
2023/01/26 02:04:32;;;;;;;80.03;41.65;;;;;;;1.16;73.89;102393.53;5039374;28;20107;-65
2023/01/26 02:06:59;;;;;;;77.93;39.97;;;;;;;1.16;74.07;102393.53;5051070;28;20036;-65
2023/01/26 02:12:17;;;;;;;78.00;40.50;;;;;;;1.21;73.06;102396.66;5041533;28;20071;-65
2023/01/26 02:14:42;;;;;;;80.97;41.05;;;;;;;1.18;73.00;102386.06;5051263;28;20475;-65
2023/01/26 02:17:08;;;;;;;79.85;40.13;;;;;;;1.17;73.05;102383.44;5048520;28;20025;-65
2023/01/26 02:19:40;;;;;;;81.20;41.95;;;;;;;1.18;73.88;102385.19;5050575;28;20075;-65
2023/01/26 02:22:20;;;;;;;79.28;40.38;;;;;;;1.21;74.04;102374.78;5041517;28;20128;-65
2023/01/26 02:24:45;;;;;;;82.07;41.10;;;;;;;1.17;73.06;102367.91;5032756;28;20454;-65
2023/01/26 02:27:11;;;;;;;83.30;41.08;;;;;;;1.22;73.22;102367.47;5031652;28;20082;-65
2023/01/26 02:29:36;;;;;;;81.70;42.08;;;;;;;1.19;73.86;102365.88;5050792;28;20036;-65
2023/01/26 02:32:01;;;;;;;76.95;39.60;;;;;;;1.17;74.21;102367.91;5048216;28;20060;-64
2023/01/26 02:34:27;;;;;;;80.63;40.70;;;;;;;1.20;73.85;102369.47;5048318;28;20048;-66
2023/01/26 02:37:00;;;;;;;81.43;42.55;;;;;;;1.19;74.37;102365.88;5051149;28;20139;-66
2023/01/26 02:39:39;;;;;;;79.05;39.60;;;;;;;1.21;73.58;102363.84;5038909;28;20052;-65
2023/01/26 02:44:49;;;;;;;79.13;40.00;;;;;;;1.26;74.35;102365.25;5046411;28;20690;-65
2023/01/26 02:47:17;;;;;;;73.65;38.28;;;;;;;1.21;74.13;102363.84;5050394;28;20028;-65
2023/01/26 02:49:51;;;;;;;77.03;40.38;;;;;;;1.21;74.21;102363.84;5048511;28;20041;-65
2023/01/26 02:52:20;;;;;;;72.57;38.33;;;;;;;1.23;74.19;102358.22;5042797;28;20017;-65
2023/01/26 02:57:29;;;;;;;77.65;39.40;;;;;;;1.20;74.18;102359.38;5038459;28;20044;-66
2023/01/26 02:59:54;;;;;;;77.40;39.47;;;;;;;1.22;73.80;102353.78;5048519;28;20397;-65
2023/01/26 03:02:20;;;;;;;77.32;38.42;;;;;;;1.27;74.45;102356.06;5049996;28;20039;-64
2023/01/26 03:04:45;;;;;;;73.20;37.65;;;;;;;1.27;74.34;102356.06;5047106;28;20021;-65
2023/01/26 03:07:11;;;;;;;75.57;38.28;;;;;;;1.25;73.65;102352.59;5050545;28;20024;-65
2023/01/26 03:09:36;;;;;;;78.10;39.45;;;;;;;1.25;74.44;102356.19;5049879;28;20518;-65
2023/01/26 03:12:02;;;;;;;73.88;37.83;;;;;;;1.27;74.03;102353.31;5050670;28;20021;-65
2023/01/26 03:14:27;;;;;;;74.40;38.47;;;;;;;1.26;74.61;102357.94;5039895;28;20481;-66
2023/01/26 03:16:54;;;;;;;72.00;37.85;;;;;;;1.27;74.03;102351.44;5048827;28;20094;-65
2023/01/26 03:27:50;;;;;;;68.55;35.28;;;;;;;1.30;74.44;102353.88;5048300;28;20496;-65
2023/01/26 03:30:18;;;;;;;71.60;37.20;;;;;;;1.25;74.80;102344.38;5036053;28;20029;-65
2023/01/26 03:32:44;;;;;;;70.60;37.42;;;;;;;1.25;74.61;102347.13;5037931;28;20074;-66
2023/01/26 03:35:14;;;;;;;70.75;37.30;;;;;;;1.25;74.98;102349.84;5050280;28;20422;-65
2023/01/26 03:37:42;;;;;;;70.93;36.20;;;;;;;1.25;74.39;102350.72;5048564;28;20040;-65
2023/01/26 03:56:33;;;;;;;60.60;33.50;;;;;;;1.35;74.89;102342.44;5049262;28;20550;-65
2023/01/26 03:59:06;;;;;;;66.15;34.55;;;;;;;1.34;74.62;102338.88;5050231;28;20064;-65
2023/01/26 04:01:37;;;;;;;61.55;32.63;;;;;;;1.35;74.95;102343.31;5047738;28;20033;-65
2023/01/26 04:09:32;;;;;;;62.05;33.38;;;;;;;1.38;75.27;102343.00;5052304;28;20084;-65
2023/01/26 04:11:58;;;;;;;61.45;32.72;;;;;;;1.39;75.57;102330.19;5054232;28;20108;-64
2023/01/26 04:22:44;;;;;;;62.78;32.60;;;;;;;1.46;75.13;102334.00;5054865;28;20043;-65
2023/01/26 04:25:15;;;;;;;61.60;31.10;;;;;;;1.46;75.72;102334.00;5050442;28;20025;-65
2023/01/26 04:27:42;;;;;;;58.75;29.88;;;;;;;1.45;74.98;102338.63;5049865;28;20021;-65
2023/01/26 04:30:09;;;;;;;57.08;29.33;;;;;;;1.44;75.83;102336.88;5032613;28;20037;-65
2023/01/26 04:32:34;;;;;;;58.80;30.02;;;;;;;1.48;75.76;102330.09;5033050;28;20038;-65
2023/01/26 04:35:00;;;;;;;61.13;31.00;;;;;;;1.51;75.49;102331.66;5033486;28;20366;-65
2023/01/26 04:37:25;;;;;;;56.05;29.52;;;;;;;1.52;75.77;102327.91;5047384;28;20066;-65
2023/01/26 04:39:50;;;;;;;60.05;30.73;;;;;;;1.54;75.60;102342.28;5052709;28;20550;-65
2023/01/26 04:42:16;;;;;;;55.53;28.95;;;;;;;1.55;74.99;102335.78;5052174;28;20033;-65
2023/01/26 04:44:41;;;;;;;57.25;29.80;;;;;;;1.56;75.51;102334.78;5051782;28;20403;-65
2023/01/26 04:47:06;;;;;;;53.50;28.17;;;;;;;1.56;75.54;102336.66;5050205;28;20211;-65
2023/01/26 04:49:32;;;;;;;51.42;26.75;;;;;;;1.55;75.04;102338.53;5045299;28;20683;-65
2023/01/26 04:51:57;;;;;;;48.78;25.05;;;;;;;1.57;74.91;102331.03;5051480;28;20040;-65
2023/01/26 04:54:22;;;;;;;50.33;25.63;;;;;;;1.57;74.96;102333.78;5050434;28;20037;-65
2023/01/26 04:56:48;;;;;;;49.53;24.80;;;;;;;1.58;74.89;102338.22;5048087;28;20032;-65
2023/01/26 04:59:13;;;;;;;45.53;24.75;;;;;;;1.61;74.86;102335.19;5051212;28;20503;-65
2023/01/26 05:01:39;;;;;;;49.33;26.25;;;;;;;1.61;75.37;102332.44;5050723;28;20029;-65
2023/01/26 05:04:05;;;;;;;43.50;24.00;;;;;;;1.61;74.96;102332.44;5050859;28;20071;-65
2023/01/26 05:06:31;;;;;;;46.50;24.15;;;;;;;1.61;74.74;102335.19;5040880;28;20535;-65
2023/01/26 05:08:57;;;;;;;46.58;24.10;;;;;;;1.61;75.78;102332.44;5034280;28;20037;-65
2023/01/26 05:11:22;;;;;;;43.30;23.55;;;;;;;1.60;75.32;102330.69;5039251;28;20396;-66
2023/01/26 05:13:47;;;;;;;47.13;24.45;;;;;;;1.60;75.36;102330.69;5051734;28;20037;-66
2023/01/26 05:16:13;;;;;;;45.33;23.65;;;;;;;1.62;74.99;102333.28;5051383;28;20021;-65
2023/01/26 05:18:42;;;;;;;44.88;23.13;;;;;;;1.61;75.36;102329.69;5052054;28;20039;-65
2023/01/26 05:21:09;;;;;;;48.97;24.80;;;;;;;1.64;75.41;102333.97;5049494;28;20391;-65
2023/01/26 05:23:35;;;;;;;47.30;25.15;;;;;;;1.62;75.48;102328.69;5047102;28;20025;-66
2023/01/26 05:26:00;;;;;;;43.65;23.92;;;;;;;1.65;75.03;102328.38;5035909;28;20083;-65
2023/01/26 05:28:25;;;;;;;44.35;23.80;;;;;;;1.66;75.14;102331.97;5051287;28;20095;-65
2023/01/26 05:30:51;;;;;;;41.40;22.45;;;;;;;1.66;75.61;102330.06;5047761;28;20547;-65
2023/01/26 05:33:20;;;;;;;43.15;22.90;;;;;;;1.68;75.01;102329.91;5052035;28;20040;-65
2023/01/26 05:35:46;;;;;;;42.17;22.10;;;;;;;1.65;75.72;102339.31;5052883;28;20024;-65
2023/01/26 05:38:12;;;;;;;41.72;22.70;;;;;;;1.67;76.00;102336.41;5050523;28;20049;-66
2023/01/26 05:40:37;;;;;;;43.78;22.63;;;;;;;1.66;75.84;102334.69;5048740;28;20447;-65
2023/01/26 05:43:02;;;;;;;43.28;24.58;;;;;;;1.68;75.31;102329.91;5045488;28;20020;-65
2023/01/26 05:45:28;;;;;;;44.58;23.27;;;;;;;1.68;74.93;102341.72;5051356;28;20025;-65
2023/01/26 05:47:53;;;;;;;44.15;23.65;;;;;;;1.69;75.13;102334.34;5048770;28;20023;-65
2023/01/26 05:50:18;;;;;;;42.47;22.70;;;;;;;1.70;75.93;102342.44;5048337;28;20078;-66
2023/01/26 05:52:47;;;;;;;42.88;22.95;;;;;;;1.74;75.34;102340.25;5045158;28;20029;-66
2023/01/26 05:55:13;;;;;;;41.92;22.02;;;;;;;1.73;75.64;102341.25;5044217;28;20017;-65
2023/01/26 05:57:38;;;;;;;41.20;22.63;;;;;;;1.70;75.59;102334.22;5042052;28;20064;-65
2023/01/26 06:00:05;;;;;;;42.40;22.02;;;;;;;1.70;75.81;102336.97;5033375;28;20060;-65
2023/01/26 06:02:30;;;;;;;46.38;24.38;;;;;;;1.70;75.51;102336.97;5030147;28;20037;-65
2023/01/26 06:04:55;;;;;;;43.90;22.15;;;;;;;1.72;75.74;102340.38;5049680;28;20785;-66
2023/01/26 06:07:20;;;;;;;42.55;22.88;;;;;;;1.73;75.30;102335.78;5042522;28;20670;-65
2023/01/26 06:09:46;;;;;;;42.13;22.48;;;;;;;1.72;75.46;102343.13;5043777;28;20052;-66
2023/01/26 06:12:21;;;;;;;41.05;21.42;;;;;;;1.75;76.23;102349.31;5045574;28;20072;-65
2023/01/26 06:14:46;;;;;;;41.63;21.63;;;;;;;1.73;75.30;102346.75;5045333;28;20078;-66
2023/01/26 06:17:16;;;;;;;37.67;20.45;;;;;;;1.73;75.98;102352.22;5048943;28;20029;-65
2023/01/26 06:19:42;;;;;;;37.33;20.30;;;;;;;1.76;75.61;102357.34;5044222;28;20040;-65
2023/01/26 06:22:09;;;;;;;39.63;21.27;;;;;;;1.76;76.22;102359.22;5049779;28;20075;-65
2023/01/26 06:24:34;;;;;;;39.75;21.08;;;;;;;1.76;76.00;102354.59;5046650;28;20431;-65
2023/01/26 06:27:00;;;;;;;38.85;21.40;;;;;;;1.76;76.32;102353.75;5036955;28;20029;-65
2023/01/26 06:29:25;;;;;;;39.97;21.00;;;;;;;1.75;75.96;102343.81;5046430;28;21822;-65
2023/01/26 06:31:51;;;;;;;42.40;21.02;;;;;;;1.78;76.24;102344.38;5048765;28;20044;-65
2023/01/26 06:34:17;;;;;;;42.17;20.98;;;;;;;1.78;75.85;102344.38;5046946;28;20040;-66
2023/01/26 06:36:42;;;;;;;36.75;19.08;;;;;;;1.80;76.05;102357.88;5044631;28;20029;-65
2023/01/26 06:39:10;;;;;;;38.65;20.33;;;;;;;1.79;76.07;102354.31;5040344;28;20045;-64
2023/01/26 06:41:36;;;;;;;38.25;20.42;;;;;;;1.79;75.77;102353.44;5044192;28;20075;-67
2023/01/26 06:44:01;;;;;;;37.45;19.08;;;;;;;1.80;75.74;102361.47;5039842;28;20056;-65
2023/01/26 06:46:26;;;;;;;40.92;21.13;;;;;;;1.80;76.01;102361.47;5044972;28;20040;-66
2023/01/26 06:48:52;;;;;;;35.70;19.80;;;;;;;1.92;77.58;102356.63;5043657;28;20061;-61
2023/01/26 06:51:18;;;;;;;38.28;20.30;;;;;;;1.88;76.37;102357.97;5042259;28;20446;-65
2023/01/26 06:53:51;;;;;;;40.17;20.50;;;;;;;1.89;76.57;102359.69;5033386;28;20031;-65
2023/01/26 06:56:16;;;;;;;38.25;20.98;;;;;;;1.89;76.04;102368.78;5028482;28;20658;-65
2023/01/26 06:58:42;;;;;;;40.38;21.65;;;;;;;1.86;75.87;102360.88;5041847;28;20052;-65
2023/01/26 07:01:14;;;;;;;39.88;20.55;;;;;;;1.87;75.59;102361.72;5040063;28;20083;-65
2023/01/26 07:03:39;;;;;;;43.15;21.77;;;;;;;1.86;75.48;102362.75;5044969;28;20128;-65
2023/01/26 07:06:06;;;;;;;36.33;18.73;;;;;;;1.88;75.82;102363.44;5044672;28;20119;-65
2023/01/26 07:08:32;;;;;;;42.13;21.92;;;;;;;1.87;75.94;102353.50;5046297;28;20044;-64
2023/01/26 07:10:57;;;;;;;37.67;19.90;;;;;;;1.86;76.01;102363.59;5038083;28;20511;-64
2023/01/26 07:13:22;;;;;;;39.25;20.67;;;;;;;1.88;76.11;102368.91;5024201;28;20025;-64
2023/01/26 07:15:48;;;;;;;38.65;19.50;;;;;;;1.88;76.04;102368.91;5046657;28;20957;-69
2023/01/26 07:18:13;;;;;;;39.08;20.48;;;;;;;1.88;76.02;102371.66;5047449;28;20025;-69
2023/01/26 07:20:38;;;;;;;39.80;20.67;;;;;;;1.88;75.62;102375.25;5047255;28;20039;-65
2023/01/26 07:23:03;;;;;;;39.13;20.27;;;;;;;1.89;76.42;102371.50;5046939;28;20086;-65
2023/01/26 07:25:29;;;;;;;37.50;20.02;;;;;;;1.90;75.60;102372.34;5043980;28;20033;-66
2023/01/26 07:27:56;;;;;;;39.83;19.50;;;;;;;1.91;76.09;102374.06;5048958;28;20362;-68
2023/01/26 07:30:21;;;;;;;37.40;19.70;;;;;;;1.92;75.92;102373.91;5037438;28;20095;-65
2023/01/26 07:32:46;;;;;;;39.30;18.38;;;;;;;1.91;75.75;102368.59;5040467;28;20507;-67
2023/01/26 07:35:12;;;;;;;39.88;19.45;;;;;;;1.92;75.46;102368.44;5046499;28;20033;-67
2023/01/26 07:37:37;;;;;;;39.22;19.83;;;;;;;1.92;75.48;102376.63;5045335;28;20164;-67
2023/01/26 07:40:03;;;;;;;38.13;19.92;;;;;;;1.93;76.48;102383.00;5044751;28;20102;-67
2023/01/26 07:42:29;;;;;;;41.88;20.65;;;;;;;1.94;76.02;102381.97;5047660;28;20040;-67
2023/01/26 07:44:55;;;;;;;42.80;21.13;;;;;;;1.93;76.14;102369.31;5040146;28;20026;-66
2023/01/26 07:47:20;;;;;;;44.15;21.27;;;;;;;1.94;76.00;102381.97;5041937;28;20035;-68
2023/01/26 07:49:46;;;;;;;43.08;22.40;;;;;;;1.93;75.74;102383.84;5030159;28;20033;-66
2023/01/26 07:52:11;;;;;;;39.20;20.88;;;;;;;1.94;76.23;102379.25;5044519;28;20036;-67
2023/01/26 07:54:38;;;;;;;45.88;21.85;;;;;;;1.93;76.25;102385.75;5047064;28;20029;-69
2023/01/26 07:57:05;;;;;;;40.35;20.40;;;;;;;1.92;76.79;102389.47;5045137;28;20112;-66
2023/01/26 07:59:34;;;;;;;43.78;21.98;;;;;;;1.94;75.93;102390.19;5042314;28;20127;-65
2023/01/26 08:01:59;;;;;;;40.08;19.75;;;;;;;1.95;76.24;102391.91;5043929;28;20119;-65
2023/01/26 08:04:25;;;;;;;41.63;20.63;;;;;;;1.95;76.11;102398.22;5045711;28;20112;-65
2023/01/26 08:06:53;;;;;;;43.20;22.20;;;;;;;1.94;76.76;102402.00;5041304;28;20064;-65
2023/01/26 08:09:28;;;;;;;41.13;21.20;;;;;;;1.96;76.92;102399.97;5026743;28;20032;-65
2023/01/26 08:11:57;;;;;;;44.42;22.42;;;;;;;1.94;76.02;102406.63;5046692;28;20021;-64
2023/01/26 08:14:23;;;;;;;47.53;22.65;;;;;;;1.95;76.09;102403.72;5043000;28;20036;-65
2023/01/26 08:16:48;;;;;;;44.67;21.77;;;;;;;1.96;76.23;102404.56;5046961;28;20384;-64
2023/01/26 08:19:14;;;;;;;43.55;21.52;;;;;;;1.98;76.24;102409.91;5029168;28;20443;-64
2023/01/26 08:21:39;;;;;;;45.50;22.23;;;;;;;1.96;76.28;102412.78;5046050;28;20427;-65
2023/01/26 08:24:05;;;;;;;46.58;21.10;;;;;;;2.00;76.92;102414.19;5045225;28;20493;-65
2023/01/26 08:26:31;;;;;;;49.08;23.40;;;;;;;1.97;76.54;102414.53;5041354;28;20083;-66
2023/01/26 08:28:57;;;;;;;45.70;22.13;;;;;;;2.01;76.94;102413.19;5044782;28;20037;-66
2023/01/26 08:31:24;;;;;;;44.70;21.33;;;;;;;2.00;76.09;102405.13;5043928;28;20071;-67
2023/01/26 08:33:50;;;;;;;46.45;22.33;;;;;;;1.98;76.91;102412.66;5031118;28;20043;-69
2023/01/26 08:36:19;;;;;;;42.45;21.42;;;;;;;2.01;76.53;102410.44;5043590;28;20032;-67
2023/01/26 08:38:46;;;;;;;45.63;21.70;;;;;;;2.02;77.00;102417.63;5044539;28;20044;-69
2023/01/26 08:41:12;;;;;;;41.50;21.30;;;;;;;2.05;77.05;102416.47;5045228;28;20107;-71
2023/01/26 08:43:37;;;;;;;45.08;21.23;;;;;;;2.05;77.10;102417.34;5040919;28;20124;-67
2023/01/26 08:46:04;;;;;;;44.33;22.40;;;;;;;2.05;76.91;102417.34;5046016;28;20068;-68
2023/01/26 08:48:30;;;;;;;44.47;22.05;;;;;;;2.04;76.82;102414.72;5050889;28;20091;-70
2023/01/26 08:50:57;;;;;;;46.35;22.50;;;;;;;2.05;76.36;102421.94;5053571;28;20037;-68
2023/01/26 08:53:23;;;;;;;40.15;21.05;;;;;;;2.05;76.66;102422.81;5049101;28;20522;-68
2023/01/26 08:55:49;;;;;;;45.45;22.85;;;;;;;2.07;76.72;102419.91;5052833;28;20028;-68
2023/01/26 08:58:15;;;;;;;45.25;22.90;;;;;;;2.08;76.33;102427.94;5049995;28;20041;-69
2023/01/26 09:00:40;;;;;;;46.92;23.13;;;;;;;2.09;76.69;102420.63;5038060;28;20025;-69
2023/01/26 09:03:06;;;;;;;45.17;21.27;;;;;;;2.11;76.78;102426.78;5053408;28;20037;-66
2023/01/26 09:05:35;;;;;;;41.67;21.70;;;;;;;2.12;76.83;102429.38;5050706;28;20434;-66
2023/01/26 09:08:01;;;;;;;44.45;21.60;;;;;;;2.11;76.72;102424.91;5050625;28;20031;-71
2023/01/26 09:10:26;;;;;;;47.80;23.05;;;;;;;2.12;76.49;102421.16;5050852;28;20040;-69
2023/01/26 09:12:52;;;;;;;52.75;23.23;;;;;;;2.12;77.34;102421.16;5050882;28;20020;-69
2023/01/26 09:15:17;;;;;;;48.35;22.67;;;;;;;2.14;76.84;102424.59;5048718;28;20041;-68
2023/01/26 09:17:42;;;;;;;45.10;22.83;;;;;;;2.13;76.65;102413.78;5037210;28;20075;-69
2023/01/26 09:20:11;;;;;;;50.78;22.42;;;;;;;2.12;76.70;102423.91;5038129;28;20029;-70
2023/01/26 09:22:36;;;;;;;47.42;23.05;;;;;;;2.16;76.83;102429.88;5053045;28;20033;-70
2023/01/26 09:25:02;;;;;;;48.45;22.23;;;;;;;2.14;76.92;102427.31;5053596;28;20048;-68
2023/01/26 09:27:27;;;;;;;54.13;23.13;;;;;;;2.17;76.96;102432.50;5050008;28;20021;-68
2023/01/26 09:29:54;;;;;;;51.88;23.30;;;;;;;2.15;77.88;102426.28;5051930;28;20102;-68
2023/01/26 09:32:19;;;;;;;56.78;23.52;;;;;;;2.17;77.24;102431.63;5043206;28;20037;-66
2023/01/26 09:34:44;;;;;;;50.95;23.00;;;;;;;2.18;77.00;102431.47;5041671;28;20024;-67
2023/01/26 09:37:10;;;;;;;53.40;22.20;;;;;;;2.21;77.89;102431.16;5046929;28;20036;-69
2023/01/26 09:39:36;;;;;;;47.33;22.65;;;;;;;2.21;77.76;102436.63;5043009;28;20490;-70
2023/01/26 09:42:10;;;;;;;51.13;23.52;;;;;;;2.24;77.58;102434.56;5052237;28;20536;-73
2023/01/26 09:44:50;;;;;;;48.72;22.90;;;;;;;2.25;78.05;102430.84;5048949;28;20021;-68
2023/01/26 09:47:30;;;;;;;51.15;22.63;;;;;;;2.27;77.50;102437.00;5049652;28;20049;-69
2023/01/26 09:50:02;;;;;;;54.58;22.55;;;;;;;2.26;77.96;102438.03;5051432;28;20036;-67
2023/01/26 09:52:52;;;;;;;53.53;23.90;;;;;;;2.28;77.99;102434.13;5046463;28;20025;-67
2023/01/26 09:55:20;;;;;;;56.00;23.77;;;;;;;2.27;77.19;102432.38;5039482;28;20029;-71
2023/01/26 09:57:52;;;;;;;53.35;23.25;;;;;;;2.29;77.83;102437.72;5047491;28;20135;-65
2023/01/26 10:00:24;;;;;;;52.22;22.50;;;;;;;2.31;77.77;102435.66;5040835;28;20024;-66
2023/01/26 10:03:30;;;;;;;56.72;24.63;;;;;;;2.35;77.80;102440.66;5049809;28;20476;-70
2023/01/26 10:06:14;;;;;;;61.75;24.52;;;;;;;2.33;77.93;102436.38;5046962;28;20033;-71
2023/01/26 10:08:42;;;;;;;60.08;23.30;;;;;;;2.32;78.30;102429.16;5049396;28;20047;-68
2023/01/26 10:11:32;;;;;;;55.42;24.08;;;;;;;2.37;77.97;102430.41;5051020;28;20056;-69
2023/01/26 10:14:10;;;;;;;52.92;23.80;;;;;;;2.37;78.15;102432.28;5048916;28;20033;-70
2023/01/26 10:16:36;;;;;;;52.70;24.20;;;;;;;2.39;78.12;102430.25;5048492;28;20091;-67
2023/01/26 10:19:05;;;;;;;50.50;22.05;;;;;;;2.38;78.53;102428.53;5048664;28;20024;-71
2023/01/26 10:21:36;;;;;;;54.95;23.40;;;;;;;2.37;78.34;102430.41;5044981;28;20032;-70
2023/01/26 10:24:02;;;;;;;56.67;24.25;;;;;;;2.41;78.57;102431.81;5043951;28;21918;-68
2023/01/26 10:26:31;;;;;;;58.03;24.90;;;;;;;2.43;78.20;102434.38;5046730;28;20119;-67
2023/01/26 10:28:57;;;;;;;55.45;24.13;;;;;;;2.45;78.25;102424.97;5040979;28;20033;-67
2023/01/26 10:31:26;;;;;;;59.85;24.88;;;;;;;2.44;79.14;102439.72;5048787;28;20036;-71
2023/01/26 10:33:55;;;;;;;54.55;22.88;;;;;;;2.48;78.39;102429.28;5044080;28;20029;-72
2023/01/26 10:36:21;;;;;;;56.00;24.63;;;;;;;2.50;79.08;102435.44;5050582;28;20115;-70
2023/01/26 10:38:47;;;;;;;58.40;25.30;;;;;;;2.51;79.44;102434.44;5043437;28;20037;-70
2023/01/26 10:41:13;;;;;;;59.45;23.58;;;;;;;2.56;79.03;102437.56;5048701;28;20037;-69
2023/01/26 10:43:40;;;;;;;62.28;26.20;;;;;;;2.57;78.68;102439.28;5047627;28;20741;-68
2023/01/26 10:46:22;;;;;;;61.60;26.15;;;;;;;2.61;78.69;102434.34;5050059;28;20025;-65
2023/01/26 10:48:54;;;;;;;62.35;25.58;;;;;;;2.62;78.93;102439.63;5047848;28;20492;-65
2023/01/26 10:51:28;;;;;;;60.15;25.60;;;;;;;2.64;78.83;102428.53;5049780;28;20021;-66
2023/01/26 10:54:17;;;;;;;59.80;25.73;;;;;;;2.68;79.28;102436.25;5048241;28;20032;-66
2023/01/26 10:56:45;;;;;;;58.90;25.75;;;;;;;2.67;78.98;102440.03;5047830;28;20088;-68
2023/01/26 10:59:21;;;;;;;60.92;26.48;;;;;;;2.70;79.08;102439.69;5049202;28;20037;-65
2023/01/26 11:02:00;;;;;;;69.05;28.60;;;;;;;2.75;79.45;102438.34;5047911;28;20127;-69
2023/01/26 11:04:27;;;;;;;64.38;27.20;;;;;;;2.77;80.10;102436.31;5045665;28;20094;-64
2023/01/26 11:06:53;;;;;;;69.85;26.55;;;;;;;2.79;79.55;102436.97;5045705;28;20561;-68
2023/01/26 11:09:24;;;;;;;65.00;26.45;;;;;;;2.82;80.67;102425.69;5045266;28;20091;-63
2023/01/26 11:12:20;;;;;;;64.40;25.45;;;;;;;2.91;80.11;102432.97;5036612;28;20029;-68
2023/01/26 11:15:04;;;;;;;66.80;25.15;;;;;;;2.94;80.68;102419.75;5045141;28;20468;-67
2023/01/26 11:17:39;;;;;;;69.82;27.77;;;;;;;2.97;80.54;102418.56;5050675;28;20037;-67
2023/01/26 11:20:30;;;;;;;67.63;25.23;;;;;;;3.00;81.29;102426.47;5048139;28;20032;-68
2023/01/26 11:23:33;;;;;;;64.57;25.30;;;;;;;3.06;81.00;102422.22;5050561;28;20024;-69
2023/01/26 11:26:04;;;;;;;60.87;24.40;;;;;;;3.08;81.80;102426.50;5039048;28;20033;-67
2023/01/26 11:28:50;;;;;;;68.47;24.70;;;;;;;3.14;82.18;102431.34;5043733;28;20303;-67
2023/01/26 11:31:21;;;;;;;62.75;25.98;;;;;;;3.16;82.35;102434.78;5046626;28;20032;-66
2023/01/26 11:34:35;;;;;;;66.13;24.63;;;;;;;3.25;81.97;102443.03;5046487;28;20029;-67
2023/01/26 11:37:03;;;;;;;65.75;24.50;;;;;;;3.28;82.84;102434.47;4971665;28;20131;-65
2023/01/26 11:40:09;;;;;;;64.38;23.45;;;;;;;3.33;82.85;102424.69;5041640;28;20029;-66
2023/01/26 11:43:12;;;;;;;62.05;24.95;;;;;;;3.40;83.38;102422.16;5039346;28;20045;-67
2023/01/26 11:46:08;;;;;;;64.13;23.60;;;;;;;3.47;83.33;102422.34;5005829;28;20044;-71
2023/01/26 11:48:55;;;;;;;57.70;22.33;;;;;;;3.52;83.06;102415.31;5046376;28;20037;-72
2023/01/26 11:51:48;;;;;;;61.53;24.50;;;;;;;3.57;83.42;102415.66;5044781;28;20807;-72
2023/01/26 11:55:01;;;;;;;69.30;24.13;;;;;;;3.64;83.76;102413.97;5018294;28;20041;-71
2023/01/26 11:57:40;;;;;;;60.58;22.73;;;;;;;3.68;83.74;102404.34;5007458;28;20033;-71
2023/01/26 12:00:18;;;;;;;59.53;23.35;;;;;;;3.77;84.65;102409.84;5048203;28;20044;-70
2023/01/26 12:02:52;;;;;;;63.80;23.40;;;;;;;3.82;84.77;102404.75;5044413;28;20037;-69
2023/01/26 12:05:25;;;;;;;63.92;22.48;;;;;;;3.92;85.71;102408.16;5035304;28;20033;-69
2023/01/26 12:08:17;;;;;;;57.85;20.15;;;;;;;4.01;85.65;102398.91;5043978;28;20043;-71
2023/01/26 12:10:58;;;;;;;62.42;18.88;;;;;;;4.12;86.10;102398.53;5034286;28;20044;-70
2023/01/26 12:13:41;;;;;;;61.03;18.83;;;;;;;4.19;87.05;102401.47;5046113;28;20469;-69